createdAt,value
2019-01-22T00:02:15.781Z,66.60
2019-01-22T00:04:45.732Z,66.20
2019-01-22T00:07:15.984Z,65.60
2019-01-22T00:09:46.480Z,66.00
2019-01-22T00:12:16.348Z,65.70
2019-01-22T00:14:48.360Z,66.00
2019-01-22T00:17:18.135Z,66.00
2019-01-22T00:19:48.180Z,66.00
2019-01-22T00:22:18.279Z,65.10
2019-01-22T00:24:48.429Z,66.30
2019-01-22T00:27:18.406Z,67.20
2019-01-22T00:29:48.421Z,66.70
2019-01-22T00:32:18.784Z,66.90
2019-01-22T00:34:49.276Z,65.10
2019-01-22T00:37:19.732Z,65.20
2019-01-22T00:39:51.016Z,65.50
2019-01-22T00:42:21.306Z,66.10
2019-01-22T00:44:51.419Z,65.90
2019-01-22T00:47:22.950Z,66.20
2019-01-22T00:49:52.961Z,66.60
2019-01-22T00:52:23.000Z,66.60
2019-01-22T00:54:52.976Z,66.40
2019-01-22T00:57:23.313Z,65.80
2019-01-22T00:59:53.228Z,65.70
2019-01-22T01:02:23.389Z,64.30
2019-01-22T01:04:53.448Z,63.80
2019-01-22T01:07:23.618Z,63.50
2019-01-22T01:09:53.907Z,64.80
2019-01-22T01:12:23.956Z,63.80
2019-01-22T01:14:53.935Z,62.20
2019-01-22T01:17:23.997Z,66.10
2019-01-22T01:19:53.764Z,68.90
2019-01-22T01:22:24.237Z,70.40
2019-01-22T01:24:54.825Z,67.40
2019-01-22T01:27:24.873Z,69.20
2019-01-22T01:29:55.066Z,71.00
2019-01-22T01:32:25.217Z,68.60
2019-01-22T01:34:55.822Z,68.70
2019-01-22T01:37:26.793Z,69.40
2019-01-22T01:39:56.973Z,68.10
2019-01-22T01:42:27.641Z,67.60
2019-01-22T01:44:57.520Z,69.50
2019-01-22T01:47:27.564Z,68.40
2019-01-22T01:49:58.071Z,68.80
2019-01-22T01:52:28.012Z,67.30
2019-01-22T01:54:57.780Z,67.60
2019-01-22T01:57:27.636Z,64.50
2019-01-22T01:59:57.603Z,67.90
2019-01-22T02:02:27.773Z,67.40
2019-01-22T02:04:57.741Z,66.10
2019-01-22T02:07:27.622Z,68.60
2019-01-22T02:09:57.561Z,67.70
2019-01-22T02:12:33.988Z,69.80
2019-01-22T02:15:05.595Z,67.40
2019-01-22T02:18:22.099Z,67.90
2019-01-22T02:21:24.798Z,62.90
2019-01-22T02:24:26.490Z,69.10
2019-01-22T02:27:29.741Z,68.20
2019-01-22T02:30:30.387Z,67.50
2019-01-22T02:33:24.672Z,66.40
2019-01-22T02:36:11.476Z,64.80
2019-01-22T02:39:13.524Z,68.00
2019-01-22T02:42:02.789Z,67.30
2019-01-22T02:45:29.025Z,73.00
2019-01-22T02:48:27.024Z,70.40
2019-01-22T02:51:39.325Z,69.60
2019-01-22T02:54:24.305Z,70.40
2019-01-22T02:57:13.037Z,62.70
2019-01-22T03:00:24.616Z,68.70
2019-01-22T03:03:57.212Z,68.80
2019-01-22T03:06:58.757Z,77.00
2019-01-22T03:09:43.273Z,64.30
2019-01-22T03:12:28.292Z,72.30
2019-01-22T03:15:35.087Z,73.10
2019-01-22T03:21:15.133Z,73.60
2019-01-22T03:24:16.173Z,70.20
2019-01-22T03:27:14.785Z,73.50
2019-01-22T03:30:05.948Z,68.10
2019-01-22T03:32:51.254Z,69.80
2019-01-22T03:36:05.301Z,68.90
2019-01-22T03:39:24.466Z,65.70
2019-01-22T03:42:19.983Z,63.20
2019-01-22T03:45:07.520Z,67.60
2019-01-22T03:48:33.640Z,67.00
2019-01-22T03:51:17.704Z,66.20
2019-01-22T03:54:24.576Z,65.00
2019-01-22T03:57:06.280Z,65.70
2019-01-22T03:59:36.288Z,68.10
2019-01-22T04:02:06.137Z,64.30
2019-01-22T04:04:36.117Z,68.00
2019-01-22T04:07:06.170Z,68.50
2019-01-22T04:10:05.725Z,69.10
2019-01-22T04:12:35.892Z,66.90
2019-01-22T04:15:07.752Z,70.30
2019-01-22T04:17:37.957Z,78.30
2019-01-22T04:20:10.207Z,70.70
2019-01-22T04:22:45.288Z,70.70
2019-01-22T04:25:29.918Z,69.00
2019-01-22T04:28:38.981Z,70.90
2019-01-22T04:31:42.536Z,68.00
2019-01-22T04:34:49.364Z,69.90
2019-01-22T04:37:51.109Z,68.50
2019-01-22T04:41:08.103Z,66.30
2019-01-22T04:43:46.961Z,63.30
2019-01-22T04:47:02.498Z,62.00
2019-01-22T04:50:18.136Z,62.50
2019-01-22T04:53:37.241Z,69.80
2019-01-22T04:56:48.549Z,67.60
2019-01-22T04:59:36.720Z,61.00
2019-01-22T05:02:52.354Z,68.60
2019-01-22T05:05:50.588Z,65.00
2019-01-22T05:09:05.604Z,68.40
2019-01-22T05:12:11.253Z,67.00
2019-01-22T05:15:20.543Z,67.60
2019-01-22T05:18:46.273Z,67.80
2019-01-22T05:21:53.298Z,68.10
2019-01-22T05:25:07.270Z,64.80
2019-01-22T05:28:20.881Z,69.10
2019-01-22T05:31:34.456Z,65.40
2019-01-22T05:34:43.344Z,68.60
2019-01-22T05:37:35.812Z,67.00
2019-01-22T05:40:51.231Z,72.40
2019-01-22T05:44:00.609Z,61.60
2019-01-22T05:47:08.439Z,72.20
2019-01-22T05:50:14.781Z,66.60
2019-01-22T05:53:26.984Z,71.70
2019-01-22T05:56:06.832Z,70.30
2019-01-22T05:59:21.392Z,62.30
2019-01-22T06:01:59.264Z,73.50
2019-01-22T06:05:17.060Z,73.00
2019-01-22T06:08:25.742Z,70.30
2019-01-22T06:11:36.451Z,70.50
2019-01-22T06:14:44.762Z,69.40
2019-01-22T06:17:53.725Z,68.70
2019-01-22T06:20:57.478Z,69.10
2019-01-22T06:24:22.709Z,70.90
2019-01-22T06:27:25.886Z,79.80
2019-01-22T06:30:31.736Z,69.30
2019-01-22T06:33:37.030Z,80.00
2019-01-22T06:36:29.829Z,71.60
2019-01-22T06:39:35.476Z,69.30
2019-01-22T06:42:19.317Z,72.40
2019-01-22T06:45:29.507Z,71.00
2019-01-22T06:48:50.928Z,71.20
2019-01-22T06:52:00.952Z,75.10
2019-01-22T07:00:34.185Z,80.00
2019-01-22T07:03:27.815Z,75.20
2019-01-22T07:06:32.485Z,70.30
2019-01-22T07:09:31.910Z,67.80
2019-01-22T07:12:42.816Z,63.20
2019-01-22T07:16:08.908Z,77.30
2019-01-22T07:19:16.701Z,64.30
2019-01-22T07:22:19.444Z,65.10
2019-01-22T07:25:12.030Z,80.80
2019-01-22T07:28:13.994Z,65.80
2019-01-22T07:31:19.953Z,69.80
2019-01-22T07:34:30.517Z,65.90
2019-01-22T07:37:43.000Z,79.40
2019-01-22T07:40:32.076Z,76.90
2019-01-22T07:44:01.062Z,74.00
2019-01-22T07:47:07.738Z,74.00
2019-01-22T07:50:14.339Z,78.90
2019-01-22T07:53:07.112Z,73.30
2019-01-22T07:56:13.838Z,67.40
2019-01-22T07:59:02.391Z,78.00
2019-01-22T08:01:59.148Z,71.60
2019-01-22T08:05:00.533Z,76.40
2019-01-22T08:08:28.163Z,71.10
2019-01-22T08:11:47.043Z,75.80
2019-01-22T08:14:53.585Z,69.80
2019-01-22T08:18:00.186Z,67.50
2019-01-22T08:20:56.919Z,69.80
2019-01-22T08:23:57.666Z,63.80
2019-01-22T08:27:07.180Z,67.00
2019-01-22T08:30:00.210Z,68.50
2019-01-22T08:33:10.761Z,69.90
2019-01-22T08:36:26.900Z,69.70
2019-01-22T08:39:12.030Z,65.50
2019-01-22T08:42:04.034Z,67.40
2019-01-22T08:45:33.000Z,79.60
2019-01-22T08:48:53.018Z,68.70
2019-01-22T08:51:44.101Z,79.00
2019-01-22T08:54:41.564Z,82.80
2019-01-22T08:58:04.517Z,85.30
2019-01-22T09:01:12.732Z,72.40
2019-01-22T09:04:12.220Z,82.40
2019-01-22T09:07:07.761Z,83.30
2019-01-22T09:10:27.501Z,82.60
2019-01-22T09:13:28.240Z,72.80
2019-01-22T09:16:44.129Z,81.10
2019-01-22T09:20:05.480Z,69.00
2019-01-22T09:23:03.353Z,79.10
2019-01-22T09:26:01.395Z,72.60
2019-01-22T09:29:14.860Z,78.20
2019-01-22T09:32:07.608Z,74.30
2019-01-22T09:35:20.477Z,74.60
2019-01-22T09:37:58.152Z,70.20
2019-01-22T09:40:28.400Z,80.00
2019-01-22T09:42:59.044Z,74.20
2019-01-22T09:45:29.307Z,76.70
2019-01-22T09:47:59.335Z,72.30
2019-01-22T09:50:29.392Z,66.20
2019-01-22T09:52:59.473Z,79.40
2019-01-22T09:55:30.453Z,81.30
2019-01-22T09:58:00.525Z,80.70
2019-01-22T10:00:30.697Z,66.20
2019-01-22T10:03:00.880Z,71.30
2019-01-22T10:05:30.929Z,71.10
2019-01-22T10:08:00.914Z,69.70
2019-01-22T10:10:31.065Z,82.60
2019-01-22T10:13:01.133Z,76.20
2019-01-22T10:15:31.301Z,65.10
2019-01-22T10:18:01.365Z,71.20
2019-01-22T10:20:31.536Z,70.00
2019-01-22T10:23:01.721Z,74.70
2019-01-22T10:25:31.984Z,82.50
2019-01-22T10:28:02.060Z,65.90
2019-01-22T10:30:32.077Z,69.30
2019-01-22T10:33:02.239Z,72.80
2019-01-22T10:35:32.626Z,75.50
2019-01-22T10:38:02.898Z,68.70
2019-01-22T10:40:33.597Z,78.40
2019-01-22T10:43:09.238Z,67.60
2019-01-22T10:45:35.636Z,68.60
2019-01-22T10:48:05.817Z,77.10
2019-01-22T10:50:36.309Z,70.40
2019-01-22T10:53:06.273Z,67.50
2019-01-22T10:55:36.538Z,65.70
2019-01-22T10:58:08.714Z,76.90
2019-01-22T11:00:38.213Z,67.50
2019-01-22T11:03:08.946Z,69.60
2019-01-22T11:05:40.800Z,68.50
2019-01-22T11:08:10.851Z,70.30
2019-01-22T11:10:40.936Z,70.30
2019-01-22T11:13:11.095Z,82.50
2019-01-22T11:15:41.103Z,71.60
2019-01-22T11:18:11.140Z,86.10
2019-01-22T11:20:41.310Z,77.90
2019-01-22T11:23:11.276Z,78.30
2019-01-22T11:25:43.681Z,71.70
2019-01-22T11:28:13.093Z,87.00
2019-01-22T11:30:43.120Z,79.60
2019-01-22T11:33:13.172Z,69.30
2019-01-22T11:35:43.164Z,74.80
2019-01-22T11:38:13.333Z,70.80
2019-01-22T11:40:47.997Z,66.70
2019-01-22T11:43:18.304Z,80.60
2019-01-22T11:45:48.338Z,77.90
2019-01-22T11:48:18.290Z,67.30
2019-01-22T11:50:48.477Z,69.20
2019-01-22T11:53:18.933Z,68.00
2019-01-22T11:55:50.622Z,68.40
2019-01-22T11:58:21.204Z,87.40
2019-01-22T12:00:56.740Z,74.70
2019-01-22T12:03:26.785Z,85.50
2019-01-22T12:05:56.764Z,74.40
2019-01-22T12:08:26.723Z,81.40
2019-01-22T12:10:56.900Z,69.60
2019-01-22T12:13:27.204Z,69.50
2019-01-22T12:15:57.801Z,74.70
2019-01-22T12:18:27.789Z,72.40
2019-01-22T12:20:57.639Z,80.60
2019-01-22T12:23:27.696Z,64.90
2019-01-22T12:25:58.166Z,73.50
2019-01-22T12:28:28.344Z,65.90
2019-01-22T12:30:58.501Z,79.90
2019-01-22T12:33:28.579Z,66.80
2019-01-22T12:35:58.536Z,79.90
2019-01-22T12:38:28.518Z,67.80
2019-01-22T12:40:58.570Z,72.20
2019-01-22T12:43:28.646Z,73.70
2019-01-22T12:45:58.804Z,62.30
2019-01-22T12:48:28.884Z,84.00
2019-01-22T12:50:59.155Z,70.30
2019-01-22T12:53:29.230Z,68.90
2019-01-22T12:56:04.474Z,73.20
2019-01-22T12:58:31.116Z,66.70
2019-01-22T13:01:01.040Z,83.30
2019-01-22T13:03:30.828Z,63.10
2019-01-22T13:06:02.936Z,82.30
2019-01-22T13:08:32.788Z,63.30
2019-01-22T13:11:02.961Z,68.90
2019-01-22T13:13:32.826Z,70.30
2019-01-22T13:16:02.992Z,69.80
2019-01-22T13:18:32.976Z,70.10
2019-01-22T13:21:02.947Z,67.50
2019-01-22T13:23:32.906Z,79.00
2019-01-22T13:26:03.048Z,81.30
2019-01-22T13:28:33.034Z,67.50
2019-01-22T13:31:03.208Z,79.70
2019-01-22T13:33:33.067Z,74.50
2019-01-22T13:36:03.232Z,68.90
2019-01-22T13:38:33.276Z,81.00
2019-01-22T13:41:03.272Z,73.90
2019-01-22T13:43:33.332Z,76.30
2019-01-22T13:46:03.352Z,70.50
2019-01-22T13:48:33.521Z,74.00
2019-01-22T13:51:03.590Z,73.40
2019-01-22T13:53:33.649Z,71.50
2019-01-22T13:56:03.857Z,75.80
2019-01-22T13:58:34.045Z,74.40
2019-01-22T14:01:04.597Z,67.10
2019-01-22T14:03:34.840Z,78.50
2019-01-22T14:06:05.148Z,68.50
2019-01-22T14:08:35.204Z,70.90
2019-01-22T14:11:05.178Z,70.90
2019-01-22T14:13:35.009Z,66.90
2019-01-22T14:16:05.200Z,75.80
2019-01-22T14:18:35.369Z,75.60
2019-01-22T14:21:05.530Z,76.40
2019-01-22T14:23:35.479Z,77.90
2019-01-22T14:26:05.568Z,72.00
2019-01-22T14:28:35.400Z,67.40
2019-01-22T14:31:05.289Z,72.00
2019-01-22T14:33:35.247Z,73.30
2019-01-22T14:36:05.320Z,78.40
2019-01-22T14:38:35.394Z,66.90
2019-01-22T14:41:06.252Z,74.00
2019-01-22T14:43:36.350Z,67.30
2019-01-22T14:46:06.572Z,90.20
2019-01-22T14:48:36.664Z,79.50
2019-01-22T14:51:06.770Z,66.60
2019-01-22T14:53:36.913Z,78.40
2019-01-22T14:56:06.781Z,81.40
2019-01-22T14:58:36.951Z,82.90
2019-01-22T15:01:07.030Z,76.40
2019-01-22T15:03:41.327Z,81.00
2019-01-22T15:06:08.692Z,81.10
2019-01-22T15:08:38.652Z,73.50
2019-01-22T15:11:08.628Z,75.30
2019-01-22T15:13:38.824Z,71.00
2019-01-22T15:16:08.968Z,81.20
2019-01-22T15:18:38.980Z,89.20
2019-01-22T15:21:09.148Z,69.50
2019-01-22T15:23:39.232Z,79.80
2019-01-22T15:26:09.382Z,91.00
2019-01-22T15:28:39.564Z,76.50
2019-01-22T15:31:09.508Z,90.60
2019-01-22T15:33:39.493Z,79.90
2019-01-22T15:36:09.441Z,87.10
2019-01-22T15:38:39.421Z,78.60
2019-01-22T15:41:09.468Z,76.50
2019-01-22T15:43:39.461Z,86.20
2019-01-22T15:46:09.417Z,87.80
2019-01-22T15:48:39.397Z,84.90
2019-01-22T15:51:09.452Z,84.30
2019-01-22T15:53:39.433Z,92.00
2019-01-22T15:56:09.483Z,87.50
2019-01-22T15:58:39.582Z,77.70
2019-01-22T16:01:09.515Z,89.90
2019-01-22T16:03:39.384Z,86.60
2019-01-22T16:06:09.348Z,73.80
2019-01-22T16:08:39.536Z,82.00
2019-01-22T16:11:09.588Z,75.20
2019-01-22T16:13:39.657Z,76.90
2019-01-22T16:16:09.906Z,83.80
2019-01-22T16:18:39.898Z,75.20
2019-01-22T16:21:10.232Z,81.80
2019-01-22T16:23:40.340Z,80.70
2019-01-22T16:26:10.704Z,83.20
2019-01-22T16:28:40.777Z,91.60
2019-01-22T16:31:10.831Z,82.20
2019-01-22T16:33:40.903Z,91.10
2019-01-22T16:36:10.968Z,92.60
2019-01-22T16:38:41.051Z,85.20
2019-01-22T16:41:11.000Z,81.10
2019-01-22T16:43:40.779Z,79.50
2019-01-22T16:46:10.748Z,83.60
2019-01-22T16:48:40.614Z,88.20
2019-01-22T16:51:10.544Z,90.20
2019-01-22T16:53:40.529Z,86.40
2019-01-22T16:56:10.801Z,84.30
2019-01-22T16:58:40.872Z,79.00
2019-01-22T17:01:11.035Z,90.40
2019-01-22T17:03:41.304Z,83.90
2019-01-22T17:06:11.865Z,93.40
2019-01-22T17:08:41.865Z,88.70
2019-01-22T17:11:11.890Z,87.00
2019-01-22T17:13:41.988Z,94.70
2019-01-22T17:16:12.021Z,90.10
2019-01-22T17:18:42.269Z,90.10
2019-01-22T17:21:12.148Z,85.80
2019-01-22T17:23:42.204Z,83.30
2019-01-22T17:26:12.384Z,90.20
2019-01-22T17:28:42.713Z,81.60
2019-01-22T17:31:27.969Z,91.30
2019-01-22T17:34:01.416Z,88.90
2019-01-22T17:36:31.388Z,91.60
2019-01-22T17:39:01.349Z,93.30
2019-01-22T17:41:31.220Z,95.30
2019-01-22T17:44:01.284Z,82.40
2019-01-22T17:46:31.252Z,87.70
2019-01-22T17:49:01.321Z,92.60
2019-01-22T17:51:31.384Z,93.90
2019-01-22T17:54:01.457Z,93.00
2019-01-22T17:56:31.337Z,90.00
2019-01-22T17:59:01.386Z,91.00
2019-01-22T18:01:31.627Z,89.40
2019-01-22T18:06:30.921Z,92.40
2019-01-22T18:09:01.151Z,88.60
2019-01-22T18:11:31.136Z,90.30
2019-01-22T18:14:03.185Z,84.60
2019-01-22T18:16:33.213Z,90.60
2019-01-22T18:19:03.260Z,89.30
2019-01-22T18:21:33.342Z,90.00
2019-01-22T18:24:03.337Z,94.50
2019-01-22T18:26:33.268Z,90.10
2019-01-22T18:29:03.189Z,90.20
2019-01-22T18:31:33.233Z,92.80
2019-01-22T18:34:03.519Z,91.20
2019-01-22T18:36:33.701Z,78.20
2019-01-22T18:39:04.585Z,81.70
2019-01-22T18:41:34.741Z,87.20
2019-01-22T18:44:05.120Z,88.10
2019-01-22T18:46:35.380Z,92.80
2019-01-22T18:49:05.458Z,90.00
2019-01-22T18:51:35.537Z,85.90
2019-01-22T18:54:05.604Z,91.00
2019-01-22T18:56:35.756Z,81.40
2019-01-22T18:59:05.932Z,86.20
2019-01-22T19:01:36.000Z,91.20
2019-01-22T19:04:06.611Z,84.40
2019-01-22T19:06:38.156Z,83.00
2019-01-22T19:09:09.170Z,86.60
2019-01-22T19:11:39.245Z,91.70
2019-01-22T19:14:09.652Z,92.20
2019-01-22T19:16:39.586Z,92.70
2019-01-22T19:19:09.656Z,90.60
2019-01-22T19:21:39.822Z,90.80
2019-01-22T19:24:09.887Z,85.40
2019-01-22T19:26:40.150Z,89.30
2019-01-22T19:29:10.593Z,91.20
2019-01-22T19:31:40.808Z,90.00
2019-01-22T19:34:10.872Z,89.80
2019-01-22T19:36:41.149Z,84.50
2019-01-22T19:39:11.122Z,90.30
2019-01-22T19:41:41.185Z,88.20
2019-01-22T19:44:11.261Z,95.80
2019-01-22T19:46:41.320Z,83.40
2019-01-22T19:49:11.377Z,86.20
2019-01-22T19:51:41.522Z,87.30
2019-01-22T19:54:11.628Z,90.00
2019-01-22T19:56:41.684Z,93.70
2019-01-22T19:59:11.878Z,93.00
2019-01-22T20:01:41.860Z,88.50
2019-01-22T20:04:12.115Z,94.00
2019-01-22T20:06:42.224Z,93.60
2019-01-22T20:09:12.882Z,91.60
2019-01-22T20:11:42.881Z,90.70
2019-01-22T20:14:13.149Z,93.70
2019-01-22T20:16:43.317Z,91.60
2019-01-22T20:19:13.377Z,82.80
2019-01-22T20:21:43.454Z,94.60
2019-01-22T20:24:16.880Z,88.10
2019-01-22T20:29:14.366Z,93.00
2019-01-22T20:31:44.440Z,91.80
2019-01-22T20:34:14.596Z,84.90
2019-01-22T20:36:44.784Z,82.60
2019-01-22T20:39:14.725Z,91.20
2019-01-22T20:41:44.713Z,87.20
2019-01-22T20:44:14.972Z,90.40
2019-01-22T20:46:45.069Z,78.40
2019-01-22T20:49:15.205Z,79.10
2019-01-22T20:51:45.390Z,88.30
2019-01-22T20:54:15.816Z,89.40
2019-01-22T20:56:45.762Z,91.80
2019-01-22T20:59:15.780Z,90.30
2019-01-22T21:01:45.865Z,84.30
2019-01-22T21:04:16.025Z,79.50
2019-01-22T21:06:46.312Z,82.30
2019-01-22T21:09:16.153Z,92.80
2019-01-22T21:11:46.236Z,91.50
2019-01-22T21:14:16.194Z,92.50
2019-01-22T21:16:46.165Z,88.70
2019-01-22T21:19:16.312Z,92.20
2019-01-22T21:21:46.321Z,87.80
2019-01-22T21:24:16.657Z,90.70
2019-01-22T21:26:46.848Z,87.00
2019-01-22T21:29:16.800Z,93.40
2019-01-22T21:31:46.981Z,92.40
2019-01-22T21:34:17.072Z,90.10
2019-01-22T21:36:47.220Z,92.90
2019-01-22T21:39:17.245Z,92.40
2019-01-22T21:41:47.388Z,88.70
2019-01-22T21:44:17.676Z,92.30
2019-01-22T21:46:47.953Z,89.80
2019-01-22T21:49:18.133Z,90.00
2019-01-22T21:51:48.120Z,82.00
2019-01-22T21:54:18.144Z,88.40
2019-01-22T21:56:48.108Z,92.10
2019-01-22T21:59:17.979Z,91.00
2019-01-22T22:01:48.137Z,91.00
2019-01-22T22:04:18.134Z,82.90
2019-01-22T22:06:48.640Z,87.00
2019-01-22T22:09:18.668Z,88.30
2019-01-22T22:11:48.604Z,85.70
2019-01-22T22:14:18.487Z,87.20
2019-01-22T22:16:48.433Z,90.50
2019-01-22T22:19:18.416Z,90.00
2019-01-22T22:21:48.490Z,90.50
2019-01-22T22:24:18.562Z,92.30
2019-01-22T22:26:48.614Z,91.80
2019-01-22T22:29:18.692Z,86.60
2019-01-22T22:31:49.026Z,94.00
2019-01-22T22:34:19.016Z,92.40
2019-01-22T22:36:48.972Z,84.80
2019-01-22T22:39:18.865Z,77.70
2019-01-22T22:41:49.018Z,86.50
2019-01-22T22:44:19.013Z,80.00
2019-01-22T22:46:48.923Z,90.70
2019-01-22T22:49:19.241Z,92.30
2019-01-22T22:51:50.432Z,90.10
2019-01-22T22:54:20.604Z,88.50
2019-01-22T22:56:50.342Z,81.70
2019-01-22T22:59:20.312Z,93.40
2019-01-22T23:01:50.283Z,94.80
2019-01-22T23:04:20.373Z,87.20
2019-01-22T23:06:50.925Z,90.10
2019-01-22T23:09:21.001Z,92.50
2019-01-22T23:11:50.949Z,92.40
2019-01-22T23:14:20.947Z,90.80
2019-01-22T23:16:50.885Z,89.40
2019-01-22T23:19:20.860Z,88.30
2019-01-22T23:21:51.025Z,79.50
2019-01-22T23:24:20.999Z,84.40
2019-01-22T23:26:51.023Z,89.20
2019-01-22T23:29:20.977Z,90.90
2019-01-22T23:31:50.948Z,93.00
2019-01-22T23:34:21.523Z,84.50
2019-01-22T23:36:51.588Z,90.20
2019-01-22T23:39:21.656Z,90.30
2019-01-22T23:41:51.532Z,86.20
2019-01-22T23:44:21.580Z,82.80
2019-01-22T23:46:51.349Z,91.10
2019-01-22T23:49:21.416Z,90.60
2019-01-22T23:51:52.706Z,85.00
2019-01-22T23:54:24.544Z,81.10
2019-01-22T23:56:54.696Z,90.10
2019-01-22T23:59:24.761Z,89.60
